sensor_id;sensor_type;location;lat;lon;timestamp;temperature;humidity
12588;DHT22;6359;51.450;7.346;2023-06-26T00:01:34;22.50;99.90
12588;DHT22;6359;51.450;7.346;2023-06-26T00:04:01;22.40;99.90
12588;DHT22;6359;51.450;7.346;2023-06-26T00:06:28;22.40;99.90
12588;DHT22;6359;51.450;7.346;2023-06-26T00:08:55;22.20;99.90
12588;DHT22;6359;51.450;7.346;2023-06-26T00:11:24;22.10;99.90
12588;DHT22;6359;51.450;7.346;2023-06-26T00:13:53;21.80;99.90
12588;DHT22;6359;51.450;7.346;2023-06-26T00:16:20;21.60;99.90
12588;DHT22;6359;51.450;7.346;2023-06-26T00:18:48;21.40;99.90
12588;DHT22;6359;51.450;7.346;2023-06-26T00:21:15;21.20;99.90
12588;DHT22;6359;51.450;7.346;2023-06-26T00:23:42;21.20;99.90
12588;DHT22;6359;51.450;7.346;2023-06-26T00:26:09;21.20;99.90
12588;DHT22;6359;51.450;7.346;2023-06-26T00:28:36;21.10;99.90
12588;DHT22;6359;51.450;7.346;2023-06-26T00:31:04;21.20;99.90
12588;DHT22;6359;51.450;7.346;2023-06-26T00:33:31;21.30;99.90
12588;DHT22;6359;51.450;7.346;2023-06-26T00:36:00;21.40;99.90
12588;DHT22;6359;51.450;7.346;2023-06-26T00:38:27;21.50;99.90
12588;DHT22;6359;51.450;7.346;2023-06-26T00:40:54;21.50;99.90
12588;DHT22;6359;51.450;7.346;2023-06-26T00:43:21;21.60;99.90
12588;DHT22;6359;51.450;7.346;2023-06-26T00:45:48;21.60;99.90
12588;DHT22;6359;51.450;7.346;2023-06-26T00:48:15;21.70;99.90
12588;DHT22;6359;51.450;7.346;2023-06-26T00:50:43;21.70;99.90
12588;DHT22;6359;51.450;7.346;2023-06-26T00:53:11;21.70;99.90
12588;DHT22;6359;51.450;7.346;2023-06-26T00:55:39;21.70;99.90
12588;DHT22;6359;51.450;7.346;2023-06-26T00:58:06;21.70;99.90
12588;DHT22;6359;51.450;7.346;2023-06-26T01:00:33;21.70;99.90
12588;DHT22;6359;51.450;7.346;2023-06-26T01:03:00;21.70;99.90
12588;DHT22;6359;51.450;7.346;2023-06-26T01:05:28;21.70;99.90
12588;DHT22;6359;51.450;7.346;2023-06-26T01:07:57;21.70;99.90
12588;DHT22;6359;51.450;7.346;2023-06-26T01:10:26;21.80;99.90
12588;DHT22;6359;51.450;7.346;2023-06-26T01:12:54;21.90;99.90
12588;DHT22;6359;51.450;7.346;2023-06-26T01:15:21;21.90;99.90
12588;DHT22;6359;51.450;7.346;2023-06-26T01:17:49;21.90;99.90
12588;DHT22;6359;51.450;7.346;2023-06-26T01:20:17;21.80;99.90
12588;DHT22;6359;51.450;7.346;2023-06-26T01:22:54;21.80;99.90
12588;DHT22;6359;51.450;7.346;2023-06-26T01:25:33;21.80;99.90
12588;DHT22;6359;51.450;7.346;2023-06-26T01:28:06;21.80;99.90
12588;DHT22;6359;51.450;7.346;2023-06-26T01:30:37;21.60;99.90
12588;DHT22;6359;51.450;7.346;2023-06-26T01:33:05;21.60;99.90
12588;DHT22;6359;51.450;7.346;2023-06-26T01:35:33;21.60;99.90
12588;DHT22;6359;51.450;7.346;2023-06-26T01:38:15;21.60;99.90
12588;DHT22;6359;51.450;7.346;2023-06-26T01:40:42;21.60;99.90
12588;DHT22;6359;51.450;7.346;2023-06-26T01:43:16;21.70;99.90
12588;DHT22;6359;51.450;7.346;2023-06-26T01:45:46;21.70;99.90
12588;DHT22;6359;51.450;7.346;2023-06-26T01:48:17;21.70;99.90
12588;DHT22;6359;51.450;7.346;2023-06-26T01:50:46;21.70;99.90
12588;DHT22;6359;51.450;7.346;2023-06-26T01:53:17;21.60;99.90
12588;DHT22;6359;51.450;7.346;2023-06-26T01:55:47;21.60;99.90
12588;DHT22;6359;51.450;7.346;2023-06-26T01:58:19;21.50;99.90
12588;DHT22;6359;51.450;7.346;2023-06-26T02:00:47;21.60;99.90
12588;DHT22;6359;51.450;7.346;2023-06-26T02:03:14;21.60;99.90
12588;DHT22;6359;51.450;7.346;2023-06-26T02:05:41;21.50;99.90
12588;DHT22;6359;51.450;7.346;2023-06-26T02:08:10;21.50;99.90
12588;DHT22;6359;51.450;7.346;2023-06-26T02:10:37;21.50;99.90
12588;DHT22;6359;51.450;7.346;2023-06-26T02:13:04;21.50;99.90
12588;DHT22;6359;51.450;7.346;2023-06-26T02:15:32;21.40;99.90
12588;DHT22;6359;51.450;7.346;2023-06-26T02:17:59;21.50;99.90
12588;DHT22;6359;51.450;7.346;2023-06-26T02:20:26;21.60;99.90
12588;DHT22;6359;51.450;7.346;2023-06-26T02:22:54;21.60;99.90
12588;DHT22;6359;51.450;7.346;2023-06-26T02:25:20;21.60;99.90
12588;DHT22;6359;51.450;7.346;2023-06-26T02:27:47;21.60;99.90
12588;DHT22;6359;51.450;7.346;2023-06-26T02:30:15;21.50;99.90
12588;DHT22;6359;51.450;7.346;2023-06-26T02:32:43;21.50;99.90
12588;DHT22;6359;51.450;7.346;2023-06-26T02:35:10;21.60;99.90
12588;DHT22;6359;51.450;7.346;2023-06-26T02:37:37;21.60;99.90
12588;DHT22;6359;51.450;7.346;2023-06-26T02:40:05;21.50;99.90
12588;DHT22;6359;51.450;7.346;2023-06-26T02:42:34;21.50;99.90
12588;DHT22;6359;51.450;7.346;2023-06-26T02:45:01;21.50;99.90
12588;DHT22;6359;51.450;7.346;2023-06-26T02:47:28;21.50;99.90
12588;DHT22;6359;51.450;7.346;2023-06-26T02:49:57;21.50;99.90
12588;DHT22;6359;51.450;7.346;2023-06-26T02:52:24;21.40;99.90
12588;DHT22;6359;51.450;7.346;2023-06-26T02:54:51;21.50;99.90
12588;DHT22;6359;51.450;7.346;2023-06-26T02:57:18;21.40;99.90
12588;DHT22;6359;51.450;7.346;2023-06-26T02:59:45;21.30;99.90
12588;DHT22;6359;51.450;7.346;2023-06-26T03:02:12;21.30;99.90
12588;DHT22;6359;51.450;7.346;2023-06-26T03:04:39;21.30;99.90
12588;DHT22;6359;51.450;7.346;2023-06-26T03:07:07;21.10;99.90
12588;DHT22;6359;51.450;7.346;2023-06-26T03:09:34;21.00;99.90
12588;DHT22;6359;51.450;7.346;2023-06-26T03:12:02;20.90;99.90
12588;DHT22;6359;51.450;7.346;2023-06-26T03:14:29;20.80;99.90
12588;DHT22;6359;51.450;7.346;2023-06-26T03:16:57;20.60;99.90
12588;DHT22;6359;51.450;7.346;2023-06-26T03:19:28;20.50;99.90
12588;DHT22;6359;51.450;7.346;2023-06-26T03:21:55;20.50;99.90
12588;DHT22;6359;51.450;7.346;2023-06-26T03:24:24;20.40;99.90
12588;DHT22;6359;51.450;7.346;2023-06-26T03:26:51;20.30;99.90
12588;DHT22;6359;51.450;7.346;2023-06-26T03:29:18;20.30;99.90
12588;DHT22;6359;51.450;7.346;2023-06-26T03:31:45;20.30;99.90
12588;DHT22;6359;51.450;7.346;2023-06-26T03:34:12;20.40;99.90
12588;DHT22;6359;51.450;7.346;2023-06-26T03:36:39;20.40;99.90
12588;DHT22;6359;51.450;7.346;2023-06-26T03:39:06;20.50;99.90
12588;DHT22;6359;51.450;7.346;2023-06-26T03:41:35;20.50;99.90
12588;DHT22;6359;51.450;7.346;2023-06-26T03:44:02;20.40;99.90
12588;DHT22;6359;51.450;7.346;2023-06-26T03:46:29;20.40;99.90
12588;DHT22;6359;51.450;7.346;2023-06-26T03:48:56;20.40;99.90
12588;DHT22;6359;51.450;7.346;2023-06-26T03:51:23;20.50;99.90
12588;DHT22;6359;51.450;7.346;2023-06-26T03:53:50;20.40;99.90
12588;DHT22;6359;51.450;7.346;2023-06-26T03:56:17;20.30;99.90
12588;DHT22;6359;51.450;7.346;2023-06-26T03:58:46;20.20;99.90
12588;DHT22;6359;51.450;7.346;2023-06-26T04:01:13;20.10;99.90
12588;DHT22;6359;51.450;7.346;2023-06-26T04:03:40;20.10;99.90
12588;DHT22;6359;51.450;7.346;2023-06-26T04:06:07;20.10;99.90
12588;DHT22;6359;51.450;7.346;2023-06-26T04:08:35;20.00;99.90
12588;DHT22;6359;51.450;7.346;2023-06-26T04:11:02;20.20;99.90
12588;DHT22;6359;51.450;7.346;2023-06-26T04:13:29;20.50;99.90
12588;DHT22;6359;51.450;7.346;2023-06-26T04:15:58;20.80;99.90
12588;DHT22;6359;51.450;7.346;2023-06-26T04:18:25;20.90;99.90
12588;DHT22;6359;51.450;7.346;2023-06-26T04:21:07;21.10;99.90
12588;DHT22;6359;51.450;7.346;2023-06-26T04:23:35;21.30;99.90
12588;DHT22;6359;51.450;7.346;2023-06-26T04:26:03;21.50;99.90
12588;DHT22;6359;51.450;7.346;2023-06-26T04:28:30;21.60;99.90
12588;DHT22;6359;51.450;7.346;2023-06-26T04:30:59;21.60;99.90
12588;DHT22;6359;51.450;7.346;2023-06-26T04:33:27;21.60;99.90
12588;DHT22;6359;51.450;7.346;2023-06-26T04:35:54;21.70;99.90
12588;DHT22;6359;51.450;7.346;2023-06-26T04:38:21;21.70;99.90
12588;DHT22;6359;51.450;7.346;2023-06-26T04:40:48;21.80;99.90
12588;DHT22;6359;51.450;7.346;2023-06-26T04:43:15;21.80;99.90
12588;DHT22;6359;51.450;7.346;2023-06-26T04:45:42;21.80;99.90
12588;DHT22;6359;51.450;7.346;2023-06-26T04:48:11;21.80;99.90
12588;DHT22;6359;51.450;7.346;2023-06-26T04:50:39;21.90;99.90
12588;DHT22;6359;51.450;7.346;2023-06-26T04:53:06;21.80;99.90
12588;DHT22;6359;51.450;7.346;2023-06-26T04:55:33;21.80;99.90
12588;DHT22;6359;51.450;7.346;2023-06-26T04:58:00;21.90;99.90
12588;DHT22;6359;51.450;7.346;2023-06-26T05:00:27;21.90;99.90
12588;DHT22;6359;51.450;7.346;2023-06-26T05:02:54;22.00;99.90
12588;DHT22;6359;51.450;7.346;2023-06-26T05:05:27;22.00;99.90
12588;DHT22;6359;51.450;7.346;2023-06-26T05:07:55;22.10;99.90
12588;DHT22;6359;51.450;7.346;2023-06-26T05:10:22;22.20;99.90
12588;DHT22;6359;51.450;7.346;2023-06-26T05:12:50;22.20;99.90
12588;DHT22;6359;51.450;7.346;2023-06-26T05:15:17;22.30;99.90
12588;DHT22;6359;51.450;7.346;2023-06-26T05:17:44;22.50;99.90
12588;DHT22;6359;51.450;7.346;2023-06-26T05:20:11;22.70;99.90
12588;DHT22;6359;51.450;7.346;2023-06-26T05:22:40;22.90;99.90
12588;DHT22;6359;51.450;7.346;2023-06-26T05:25:09;22.80;99.90
12588;DHT22;6359;51.450;7.346;2023-06-26T05:27:37;22.80;99.90
12588;DHT22;6359;51.450;7.346;2023-06-26T05:30:05;23.20;99.90
12588;DHT22;6359;51.450;7.346;2023-06-26T05:32:34;24.30;99.90
12588;DHT22;6359;51.450;7.346;2023-06-26T05:35:03;25.00;99.90
12588;DHT22;6359;51.450;7.346;2023-06-26T05:37:31;25.80;99.90
12588;DHT22;6359;51.450;7.346;2023-06-26T05:40:01;25.80;99.90
12588;DHT22;6359;51.450;7.346;2023-06-26T05:42:31;25.00;99.90
12588;DHT22;6359;51.450;7.346;2023-06-26T05:44:58;24.50;99.90
12588;DHT22;6359;51.450;7.346;2023-06-26T05:47:25;24.60;99.90
12588;DHT22;6359;51.450;7.346;2023-06-26T05:49:52;25.30;99.90
12588;DHT22;6359;51.450;7.346;2023-06-26T05:52:20;25.60;99.90
12588;DHT22;6359;51.450;7.346;2023-06-26T05:54:47;26.10;99.90
12588;DHT22;6359;51.450;7.346;2023-06-26T05:57:16;26.80;99.90
12588;DHT22;6359;51.450;7.346;2023-06-26T05:59:44;27.50;99.90
12588;DHT22;6359;51.450;7.346;2023-06-26T06:02:11;27.50;99.90
12588;DHT22;6359;51.450;7.346;2023-06-26T06:04:39;27.70;99.90
12588;DHT22;6359;51.450;7.346;2023-06-26T06:07:06;28.10;99.90
12588;DHT22;6359;51.450;7.346;2023-06-26T06:09:33;28.70;99.90
12588;DHT22;6359;51.450;7.346;2023-06-26T06:12:00;28.80;99.90
12588;DHT22;6359;51.450;7.346;2023-06-26T06:14:30;27.80;99.90
12588;DHT22;6359;51.450;7.346;2023-06-26T06:16:57;26.80;99.90
12588;DHT22;6359;51.450;7.346;2023-06-26T06:19:24;25.50;99.90
12588;DHT22;6359;51.450;7.346;2023-06-26T06:21:51;24.90;99.90
12588;DHT22;6359;51.450;7.346;2023-06-26T06:24:20;24.40;99.90
12588;DHT22;6359;51.450;7.346;2023-06-26T06:26:47;24.80;99.90
12588;DHT22;6359;51.450;7.346;2023-06-26T06:29:14;25.80;99.90
12588;DHT22;6359;51.450;7.346;2023-06-26T06:31:42;26.50;99.90
12588;DHT22;6359;51.450;7.346;2023-06-26T06:34:09;26.80;99.90
12588;DHT22;6359;51.450;7.346;2023-06-26T06:36:37;26.40;99.90
12588;DHT22;6359;51.450;7.346;2023-06-26T06:39:04;26.30;99.90
12588;DHT22;6359;51.450;7.346;2023-06-26T06:41:31;26.60;99.90
12588;DHT22;6359;51.450;7.346;2023-06-26T06:43:58;27.50;99.90
12588;DHT22;6359;51.450;7.346;2023-06-26T06:46:25;28.10;99.90
12588;DHT22;6359;51.450;7.346;2023-06-26T06:48:54;29.10;99.90
12588;DHT22;6359;51.450;7.346;2023-06-26T06:51:21;30.10;99.90
12588;DHT22;6359;51.450;7.346;2023-06-26T06:53:48;30.20;99.80
12588;DHT22;6359;51.450;7.346;2023-06-26T06:56:15;30.40;99.20
12588;DHT22;6359;51.450;7.346;2023-06-26T06:58:42;30.70;98.20
12588;DHT22;6359;51.450;7.346;2023-06-26T07:01:11;30.80;97.90
12588;DHT22;6359;51.450;7.346;2023-06-26T07:03:39;31.20;97.00
12588;DHT22;6359;51.450;7.346;2023-06-26T07:06:07;31.80;96.00
12588;DHT22;6359;51.450;7.346;2023-06-26T07:08:34;31.90;95.30
12588;DHT22;6359;51.450;7.346;2023-06-26T07:11:02;31.80;95.60
12588;DHT22;6359;51.450;7.346;2023-06-26T07:13:29;31.30;95.00
12588;DHT22;6359;51.450;7.346;2023-06-26T07:15:56;30.00;96.00
12588;DHT22;6359;51.450;7.346;2023-06-26T07:18:23;28.80;98.50
12588;DHT22;6359;51.450;7.346;2023-06-26T07:20:50;28.10;99.90
12588;DHT22;6359;51.450;7.346;2023-06-26T07:23:19;28.10;99.90
12588;DHT22;6359;51.450;7.346;2023-06-26T07:25:46;27.70;99.90
12588;DHT22;6359;51.450;7.346;2023-06-26T07:28:13;28.00;99.90
12588;DHT22;6359;51.450;7.346;2023-06-26T07:30:41;28.00;99.90
12588;DHT22;6359;51.450;7.346;2023-06-26T07:33:08;28.70;99.90
12588;DHT22;6359;51.450;7.346;2023-06-26T07:35:35;29.00;99.40
12588;DHT22;6359;51.450;7.346;2023-06-26T07:38:02;29.70;98.70
12588;DHT22;6359;51.450;7.346;2023-06-26T07:40:31;30.00;98.60
12588;DHT22;6359;51.450;7.346;2023-06-26T07:42:58;30.80;97.40
12588;DHT22;6359;51.450;7.346;2023-06-26T07:45:25;31.40;96.70
12588;DHT22;6359;51.450;7.346;2023-06-26T07:47:52;31.00;95.90
12588;DHT22;6359;51.450;7.346;2023-06-26T07:50:19;31.20;95.90
12588;DHT22;6359;51.450;7.346;2023-06-26T07:52:48;31.90;94.80
12588;DHT22;6359;51.450;7.346;2023-06-26T07:55:16;32.10;94.90
12588;DHT22;6359;51.450;7.346;2023-06-26T07:57:44;32.30;94.10
12588;DHT22;6359;51.450;7.346;2023-06-26T08:00:12;32.00;94.70
12588;DHT22;6359;51.450;7.346;2023-06-26T08:02:39;32.60;93.90
12588;DHT22;6359;51.450;7.346;2023-06-26T08:05:07;32.90;93.90
12588;DHT22;6359;51.450;7.346;2023-06-26T08:07:34;33.30;92.80
12588;DHT22;6359;51.450;7.346;2023-06-26T08:10:01;33.10;92.30
12588;DHT22;6359;51.450;7.346;2023-06-26T08:12:29;33.30;91.50
12588;DHT22;6359;51.450;7.346;2023-06-26T08:14:57;32.90;91.30
12588;DHT22;6359;51.450;7.346;2023-06-26T08:17:24;31.60;93.20
12588;DHT22;6359;51.450;7.346;2023-06-26T08:19:51;30.90;93.60
12588;DHT22;6359;51.450;7.346;2023-06-26T08:22:18;30.70;95.90
12588;DHT22;6359;51.450;7.346;2023-06-26T08:24:45;30.90;94.70
12588;DHT22;6359;51.450;7.346;2023-06-26T08:27:12;30.10;95.40
12588;DHT22;6359;51.450;7.346;2023-06-26T08:29:39;28.50;98.40
12588;DHT22;6359;51.450;7.346;2023-06-26T08:32:08;27.60;99.90
12588;DHT22;6359;51.450;7.346;2023-06-26T08:34:35;27.40;99.90
12588;DHT22;6359;51.450;7.346;2023-06-26T08:37:05;27.50;99.90
12588;DHT22;6359;51.450;7.346;2023-06-26T08:39:35;27.50;99.90
12588;DHT22;6359;51.450;7.346;2023-06-26T08:42:02;27.50;99.90
12588;DHT22;6359;51.450;7.346;2023-06-26T08:44:29;27.40;99.90
12588;DHT22;6359;51.450;7.346;2023-06-26T08:46:58;27.70;99.90
12588;DHT22;6359;51.450;7.346;2023-06-26T08:49:32;27.50;99.90
12588;DHT22;6359;51.450;7.346;2023-06-26T08:52:05;27.00;99.90
12588;DHT22;6359;51.450;7.346;2023-06-26T08:54:36;27.30;99.90
12588;DHT22;6359;51.450;7.346;2023-06-26T08:57:05;28.20;99.90
12588;DHT22;6359;51.450;7.346;2023-06-26T08:59:33;28.60;99.90
12588;DHT22;6359;51.450;7.346;2023-06-26T09:02:00;28.80;99.90
12588;DHT22;6359;51.450;7.346;2023-06-26T09:04:30;28.30;99.90
12588;DHT22;6359;51.450;7.346;2023-06-26T09:06:59;27.70;99.90
12588;DHT22;6359;51.450;7.346;2023-06-26T09:09:27;28.10;99.90
12588;DHT22;6359;51.450;7.346;2023-06-26T09:11:55;29.20;99.90
12588;DHT22;6359;51.450;7.346;2023-06-26T09:14:22;30.40;99.60
12588;DHT22;6359;51.450;7.346;2023-06-26T09:16:50;30.80;97.80
12588;DHT22;6359;51.450;7.346;2023-06-26T09:19:17;31.00;97.80
12588;DHT22;6359;51.450;7.346;2023-06-26T09:21:49;30.10;97.20
12588;DHT22;6359;51.450;7.346;2023-06-26T09:24:17;28.50;99.80
12588;DHT22;6359;51.450;7.346;2023-06-26T09:26:44;27.40;99.90
12588;DHT22;6359;51.450;7.346;2023-06-26T09:29:12;27.50;99.90
12588;DHT22;6359;51.450;7.346;2023-06-26T09:31:40;27.20;99.90
12588;DHT22;6359;51.450;7.346;2023-06-26T09:34:08;28.00;99.90
12588;DHT22;6359;51.450;7.346;2023-06-26T09:36:36;29.50;99.60
12588;DHT22;6359;51.450;7.346;2023-06-26T09:39:06;30.80;98.00
12588;DHT22;6359;51.450;7.346;2023-06-26T09:41:36;30.90;98.20
12588;DHT22;6359;51.450;7.346;2023-06-26T09:44:04;31.70;96.00
12588;DHT22;6359;51.450;7.346;2023-06-26T09:46:33;32.10;95.20
12588;DHT22;6359;51.450;7.346;2023-06-26T09:49:04;31.30;95.20
12588;DHT22;6359;51.450;7.346;2023-06-26T09:51:32;30.20;96.50
12588;DHT22;6359;51.450;7.346;2023-06-26T09:53:59;30.00;96.10
12588;DHT22;6359;51.450;7.346;2023-06-26T09:56:28;29.70;96.20
12588;DHT22;6359;51.450;7.346;2023-06-26T09:58:57;29.00;97.50
12588;DHT22;6359;51.450;7.346;2023-06-26T10:01:24;27.80;98.80
12588;DHT22;6359;51.450;7.346;2023-06-26T10:03:51;27.00;99.90
12588;DHT22;6359;51.450;7.346;2023-06-26T10:06:22;26.60;99.90
12588;DHT22;6359;51.450;7.346;2023-06-26T10:08:51;27.20;99.90
12588;DHT22;6359;51.450;7.346;2023-06-26T10:11:21;28.20;99.90
12588;DHT22;6359;51.450;7.346;2023-06-26T10:13:51;28.70;99.90
12588;DHT22;6359;51.450;7.346;2023-06-26T10:16:23;28.40;99.00
12588;DHT22;6359;51.450;7.346;2023-06-26T10:18:53;27.70;99.50
12588;DHT22;6359;51.450;7.346;2023-06-26T10:21:22;28.60;99.80
12588;DHT22;6359;51.450;7.346;2023-06-26T10:23:51;29.60;95.80
12588;DHT22;6359;51.450;7.346;2023-06-26T10:26:20;29.90;96.30
12588;DHT22;6359;51.450;7.346;2023-06-26T10:28:50;30.90;96.60
12588;DHT22;6359;51.450;7.346;2023-06-26T10:31:21;30.70;94.80
12588;DHT22;6359;51.450;7.346;2023-06-26T10:33:49;30.30;94.90
12588;DHT22;6359;51.450;7.346;2023-06-26T10:36:17;30.40;93.50
12588;DHT22;6359;51.450;7.346;2023-06-26T10:38:49;29.90;93.50
12588;DHT22;6359;51.450;7.346;2023-06-26T10:41:20;29.30;93.60
12588;DHT22;6359;51.450;7.346;2023-06-26T10:44:06;28.20;95.30
12588;DHT22;6359;51.450;7.346;2023-06-26T10:46:39;27.80;96.40
12588;DHT22;6359;51.450;7.346;2023-06-26T10:49:14;27.80;96.00
12588;DHT22;6359;51.450;7.346;2023-06-26T10:51:46;28.80;96.70
12588;DHT22;6359;51.450;7.346;2023-06-26T10:54:15;29.20;92.10
12588;DHT22;6359;51.450;7.346;2023-06-26T10:56:43;29.20;92.30
12588;DHT22;6359;51.450;7.346;2023-06-26T10:59:16;28.60;93.80
12588;DHT22;6359;51.450;7.346;2023-06-26T11:01:45;28.40;93.40
12588;DHT22;6359;51.450;7.346;2023-06-26T11:04:14;27.90;94.20
12588;DHT22;6359;51.450;7.346;2023-06-26T11:06:46;27.20;95.60
12588;DHT22;6359;51.450;7.346;2023-06-26T11:09:17;27.20;95.70
12588;DHT22;6359;51.450;7.346;2023-06-26T11:11:58;27.30;96.30
12588;DHT22;6359;51.450;7.346;2023-06-26T11:14:30;27.50;96.10
12588;DHT22;6359;51.450;7.346;2023-06-26T11:16:58;27.30;96.90
12588;DHT22;6359;51.450;7.346;2023-06-26T11:19:26;27.10;97.40
12588;DHT22;6359;51.450;7.346;2023-06-26T11:21:58;26.70;96.20
12588;DHT22;6359;51.450;7.346;2023-06-26T11:24:26;26.30;96.10
12588;DHT22;6359;51.450;7.346;2023-06-26T11:26:53;26.00;96.70
12588;DHT22;6359;51.450;7.346;2023-06-26T11:29:21;26.00;96.90
12588;DHT22;6359;51.450;7.346;2023-06-26T11:31:59;25.90;97.60
12588;DHT22;6359;51.450;7.346;2023-06-26T11:34:29;25.60;98.30
12588;DHT22;6359;51.450;7.346;2023-06-26T11:36:57;25.80;98.00
12588;DHT22;6359;51.450;7.346;2023-06-26T11:39:26;26.40;98.40
12588;DHT22;6359;51.450;7.346;2023-06-26T11:41:53;25.90;99.50
12588;DHT22;6359;51.450;7.346;2023-06-26T11:44:21;25.60;99.90
12588;DHT22;6359;51.450;7.346;2023-06-26T11:46:51;25.40;99.90
12588;DHT22;6359;51.450;7.346;2023-06-26T11:49:21;25.60;99.90
12588;DHT22;6359;51.450;7.346;2023-06-26T11:51:51;26.00;99.90
12588;DHT22;6359;51.450;7.346;2023-06-26T11:54:24;26.40;99.90
12588;DHT22;6359;51.450;7.346;2023-06-26T11:56:55;26.30;99.30
12588;DHT22;6359;51.450;7.346;2023-06-26T11:59:24;26.80;99.90
12588;DHT22;6359;51.450;7.346;2023-06-26T12:01:52;27.10;98.10
12588;DHT22;6359;51.450;7.346;2023-06-26T12:04:20;26.70;96.50
12588;DHT22;6359;51.450;7.346;2023-06-26T12:06:50;26.20;95.20
12588;DHT22;6359;51.450;7.346;2023-06-26T12:09:18;25.80;96.00
12588;DHT22;6359;51.450;7.346;2023-06-26T12:11:48;25.60;97.10
12588;DHT22;6359;51.450;7.346;2023-06-26T12:14:17;26.30;96.90
12588;DHT22;6359;51.450;7.346;2023-06-26T12:16:46;27.20;94.40
12588;DHT22;6359;51.450;7.346;2023-06-26T12:19:15;27.50;94.20
12588;DHT22;6359;51.450;7.346;2023-06-26T12:21:47;27.20;93.70
12588;DHT22;6359;51.450;7.346;2023-06-26T12:24:19;26.80;94.10
12588;DHT22;6359;51.450;7.346;2023-06-26T12:26:49;26.80;94.80
12588;DHT22;6359;51.450;7.346;2023-06-26T12:29:18;26.50;94.80
12588;DHT22;6359;51.450;7.346;2023-06-26T12:31:48;26.40;94.50
12588;DHT22;6359;51.450;7.346;2023-06-26T12:34:18;26.10;93.60
12588;DHT22;6359;51.450;7.346;2023-06-26T12:36:47;25.80;94.00
12588;DHT22;6359;51.450;7.346;2023-06-26T12:39:16;25.90;94.80
12588;DHT22;6359;51.450;7.346;2023-06-26T12:41:45;26.30;93.20
12588;DHT22;6359;51.450;7.346;2023-06-26T12:44:24;26.70;92.80
12588;DHT22;6359;51.450;7.346;2023-06-26T12:46:55;26.80;93.80
12588;DHT22;6359;51.450;7.346;2023-06-26T12:49:31;26.60;92.50
12588;DHT22;6359;51.450;7.346;2023-06-26T12:52:00;26.40;92.30
12588;DHT22;6359;51.450;7.346;2023-06-26T12:54:27;26.20;91.10
12588;DHT22;6359;51.450;7.346;2023-06-26T12:56:54;26.30;90.30
12588;DHT22;6359;51.450;7.346;2023-06-26T12:59:22;26.80;88.40
12588;DHT22;6359;51.450;7.346;2023-06-26T13:01:49;27.20;89.70
12588;DHT22;6359;51.450;7.346;2023-06-26T13:04:16;27.30;87.90
12588;DHT22;6359;51.450;7.346;2023-06-26T13:06:45;27.30;85.30
12588;DHT22;6359;51.450;7.346;2023-06-26T13:09:12;27.30;87.20
12588;DHT22;6359;51.450;7.346;2023-06-26T13:11:39;27.20;84.90
12588;DHT22;6359;51.450;7.346;2023-06-26T13:14:06;26.50;82.60
12588;DHT22;6359;51.450;7.346;2023-06-26T13:16:34;26.00;86.70
12588;DHT22;6359;51.450;7.346;2023-06-26T13:19:01;26.10;85.40
12588;DHT22;6359;51.450;7.346;2023-06-26T13:21:28;25.60;86.10
12588;DHT22;6359;51.450;7.346;2023-06-26T13:23:57;25.00;88.10
12588;DHT22;6359;51.450;7.346;2023-06-26T13:26:24;24.80;88.30
12588;DHT22;6359;51.450;7.346;2023-06-26T13:28:52;25.00;89.60
12588;DHT22;6359;51.450;7.346;2023-06-26T13:31:19;25.30;90.50
12588;DHT22;6359;51.450;7.346;2023-06-26T13:33:46;25.60;89.10
12588;DHT22;6359;51.450;7.346;2023-06-26T13:36:15;25.60;88.00
12588;DHT22;6359;51.450;7.346;2023-06-26T13:38:42;25.30;86.70
12588;DHT22;6359;51.450;7.346;2023-06-26T13:41:10;25.00;87.30
12588;DHT22;6359;51.450;7.346;2023-06-26T13:43:38;24.70;87.40
12588;DHT22;6359;51.450;7.346;2023-06-26T13:46:05;24.60;88.50
12588;DHT22;6359;51.450;7.346;2023-06-26T13:48:32;24.50;87.40
12588;DHT22;6359;51.450;7.346;2023-06-26T13:50:59;24.60;86.70
12588;DHT22;6359;51.450;7.346;2023-06-26T13:53:26;24.90;90.10
12588;DHT22;6359;51.450;7.346;2023-06-26T13:55:53;25.50;86.80
12588;DHT22;6359;51.450;7.346;2023-06-26T13:58:22;26.00;88.70
12588;DHT22;6359;51.450;7.346;2023-06-26T14:00:52;26.00;83.50
12588;DHT22;6359;51.450;7.346;2023-06-26T14:03:19;25.90;83.10
12588;DHT22;6359;51.450;7.346;2023-06-26T14:05:46;25.70;83.10
12588;DHT22;6359;51.450;7.346;2023-06-26T14:08:14;25.40;82.10
12588;DHT22;6359;51.450;7.346;2023-06-26T14:10:41;25.50;86.80
12588;DHT22;6359;51.450;7.346;2023-06-26T14:13:08;25.50;81.90
12588;DHT22;6359;51.450;7.346;2023-06-26T14:15:38;25.60;83.40
12588;DHT22;6359;51.450;7.346;2023-06-26T14:18:06;25.50;82.90
12588;DHT22;6359;51.450;7.346;2023-06-26T14:20:33;25.90;84.20
12588;DHT22;6359;51.450;7.346;2023-06-26T14:23:01;26.10;82.30
12588;DHT22;6359;51.450;7.346;2023-06-26T14:25:29;25.80;79.90
12588;DHT22;6359;51.450;7.346;2023-06-26T14:27:56;25.30;79.90
12588;DHT22;6359;51.450;7.346;2023-06-26T14:30:23;25.20;81.70
12588;DHT22;6359;51.450;7.346;2023-06-26T14:32:52;24.80;81.90
12588;DHT22;6359;51.450;7.346;2023-06-26T14:35:19;24.60;82.80
12588;DHT22;6359;51.450;7.346;2023-06-26T14:37:48;24.70;81.30
12588;DHT22;6359;51.450;7.346;2023-06-26T14:40:15;24.50;79.80
12588;DHT22;6359;51.450;7.346;2023-06-26T14:42:42;24.30;80.30
12588;DHT22;6359;51.450;7.346;2023-06-26T14:45:11;24.10;80.50
12588;DHT22;6359;51.450;7.346;2023-06-26T14:47:38;24.30;78.10
12588;DHT22;6359;51.450;7.346;2023-06-26T14:50:08;24.40;84.60
12588;DHT22;6359;51.450;7.346;2023-06-26T14:52:35;24.50;79.20
12588;DHT22;6359;51.450;7.346;2023-06-26T14:55:03;24.70;79.50
12588;DHT22;6359;51.450;7.346;2023-06-26T14:57:30;24.80;76.00
12588;DHT22;6359;51.450;7.346;2023-06-26T14:59:57;24.80;75.10
12588;DHT22;6359;51.450;7.346;2023-06-26T15:02:24;24.80;75.20
12588;DHT22;6359;51.450;7.346;2023-06-26T15:04:51;25.00;75.60
12588;DHT22;6359;51.450;7.346;2023-06-26T15:07:19;25.10;75.20
12588;DHT22;6359;51.450;7.346;2023-06-26T15:09:46;24.90;76.90
12588;DHT22;6359;51.450;7.346;2023-06-26T15:12:13;24.70;79.10
12588;DHT22;6359;51.450;7.346;2023-06-26T15:14:41;24.50;79.50
12588;DHT22;6359;51.450;7.346;2023-06-26T15:17:08;24.60;79.40
12588;DHT22;6359;51.450;7.346;2023-06-26T15:19:35;24.70;81.30
12588;DHT22;6359;51.450;7.346;2023-06-26T15:22:03;25.00;80.70
12588;DHT22;6359;51.450;7.346;2023-06-26T15:24:31;25.20;79.30
12588;DHT22;6359;51.450;7.346;2023-06-26T15:26:58;24.90;76.60
12588;DHT22;6359;51.450;7.346;2023-06-26T15:29:25;24.60;75.50
12588;DHT22;6359;51.450;7.346;2023-06-26T15:31:53;24.40;75.50
12588;DHT22;6359;51.450;7.346;2023-06-26T15:34:20;24.40;77.10
12588;DHT22;6359;51.450;7.346;2023-06-26T15:36:48;24.50;78.90
12588;DHT22;6359;51.450;7.346;2023-06-26T15:39:16;24.60;78.00
12588;DHT22;6359;51.450;7.346;2023-06-26T15:41:45;24.70;79.20
12588;DHT22;6359;51.450;7.346;2023-06-26T15:44:12;24.90;81.30
12588;DHT22;6359;51.450;7.346;2023-06-26T15:46:39;24.70;75.20
12588;DHT22;6359;51.450;7.346;2023-06-26T15:49:06;24.50;78.90
12588;DHT22;6359;51.450;7.346;2023-06-26T15:51:33;24.30;77.20